Time;durP1;ratioP1;P1;durP2;ratioP2;P2;SDS_P1;SDS_P2;PMS_P1;PMS_P2;Temp;Humidity;BMP_temperature;BMP_pressure;BME280_temperature;BME280_humidity;BME280_pressure;Samples;Min_cycle;Max_cycle;Signal;HPM_P1;HPM_P2
2023/02/25 00:00:17;;;;;;;8.27;6.82;;;3.10;99.90;;;;;;7380959;19;20349;-77
2023/02/25 00:02:49;;;;;;;7.18;6.45;;;3.10;99.90;;;;;;7379629;19;20328;-76
2023/02/25 00:05:18;;;;;;;9.60;6.88;;;3.10;99.90;;;;;;7379435;19;20332;-76
2023/02/25 00:07:43;;;;;;;9.15;7.18;;;3.10;99.90;;;;;;7383032;19;20327;-78
2023/02/25 00:10:10;;;;;;;9.77;6.88;;;3.20;99.90;;;;;;7378494;19;20368;-78
2023/02/25 00:12:36;;;;;;;8.57;7.37;;;3.20;99.90;;;;;;7379069;19;20315;-77
2023/02/25 00:15:02;;;;;;;8.88;7.53;;;3.10;99.90;;;;;;7379042;19;20349;-80
2023/02/25 00:17:27;;;;;;;9.00;7.15;;;3.20;99.90;;;;;;7381833;19;20312;-77
2023/02/25 00:19:56;;;;;;;7.90;6.47;;;3.10;99.90;;;;;;7379898;19;20349;-77
2023/02/25 00:22:22;;;;;;;7.22;6.40;;;3.20;99.90;;;;;;7375883;19;20368;-78
2023/02/25 00:24:52;;;;;;;9.40;6.78;;;3.20;99.90;;;;;;7380740;19;20347;-77
2023/02/25 00:27:17;;;;;;;7.80;6.77;;;3.20;99.90;;;;;;7379842;19;20344;-78
2023/02/25 00:29:43;;;;;;;8.10;6.50;;;3.20;99.90;;;;;;7378881;19;20350;-77
2023/02/25 00:32:09;;;;;;;8.50;6.77;;;3.30;99.90;;;;;;7378781;19;20353;-76
2023/02/25 00:34:35;;;;;;;7.00;5.70;;;3.30;99.90;;;;;;7380923;19;20390;-78
2023/02/25 00:37:02;;;;;;;7.50;5.73;;;3.30;99.90;;;;;;7378982;19;20344;-77
2023/02/25 00:39:40;;;;;;;6.03;5.43;;;3.30;99.90;;;;;;7377261;19;20391;-78
2023/02/25 00:42:14;;;;;;;8.33;5.80;;;3.30;99.90;;;;;;7277492;19;2004714;-80
2023/02/25 00:44:44;;;;;;;6.25;5.20;;;3.40;99.90;;;;;;7380166;19;20992;-76
2023/02/25 00:47:13;;;;;;;6.90;4.95;;;3.30;99.90;;;;;;7381899;19;20408;-76
2023/02/25 00:49:38;;;;;;;7.13;5.37;;;3.40;99.90;;;;;;7379408;19;20968;-76
2023/02/25 00:52:04;;;;;;;7.10;5.50;;;3.40;99.90;;;;;;7376145;19;20355;-78
2023/02/25 00:54:30;;;;;;;6.15;4.97;;;3.40;99.90;;;;;;7381118;19;20309;-76
2023/02/25 00:56:56;;;;;;;6.53;5.00;;;3.50;99.90;;;;;;7378272;19;20348;-77
2023/02/25 00:59:21;;;;;;;5.85;5.00;;;3.40;99.90;;;;;;7377776;19;20326;-79
2023/02/25 01:01:47;;;;;;;7.05;4.80;;;3.40;99.90;;;;;;7380598;19;21200;-77
2023/02/25 01:04:13;;;;;;;7.38;4.90;;;3.40;99.90;;;;;;7381340;19;20987;-76
2023/02/25 01:06:39;;;;;;;8.53;5.00;;;3.40;99.90;;;;;;7368716;19;20328;-77
2023/02/25 01:09:12;;;;;;;6.75;5.13;;;3.40;99.90;;;;;;7380931;19;20361;-76
2023/02/25 01:11:42;;;;;;;7.30;5.07;;;3.40;99.90;;;;;;7378848;19;20320;-77
2023/02/25 01:14:11;;;;;;;7.72;4.90;;;3.30;99.90;;;;;;7381559;19;20436;-78
2023/02/25 01:16:36;;;;;;;6.23;4.47;;;3.30;99.90;;;;;;7381410;19;20420;-77
2023/02/25 01:19:16;;;;;;;7.50;4.53;;;3.20;99.90;;;;;;7377509;19;20347;-76
2023/02/25 01:21:43;;;;;;;6.72;4.30;;;3.20;99.90;;;;;;7377034;19;20324;-76
2023/02/25 01:24:11;;;;;;;6.03;4.20;;;3.20;99.90;;;;;;7380959;19;20356;-76
2023/02/25 01:26:38;;;;;;;4.45;3.90;;;3.20;99.90;;;;;;7380799;19;20325;-76
2023/02/25 01:29:11;;;;;;;5.65;4.20;;;3.20;99.90;;;;;;7380906;19;20358;-76
2023/02/25 01:31:37;;;;;;;7.30;4.35;;;3.20;99.90;;;;;;7380182;19;20320;-76
2023/02/25 01:34:04;;;;;;;5.97;4.13;;;3.20;99.90;;;;;;7380313;19;20328;-76
2023/02/25 01:36:30;;;;;;;7.75;4.60;;;3.30;99.90;;;;;;7379823;19;20375;-77
2023/02/25 01:38:56;;;;;;;5.70;4.07;;;3.30;99.90;;;;;;7380150;19;20376;-77
2023/02/25 01:41:26;;;;;;;6.00;4.13;;;3.30;99.90;;;;;;7378748;19;20316;-76
2023/02/25 01:44:11;;;;;;;4.78;4.00;;;3.30;99.90;;;;;;7378072;19;21077;-78
2023/02/25 01:46:37;;;;;;;6.05;3.80;;;3.30;99.90;;;;;;7271856;19;2008604;-79
2023/02/25 01:49:05;;;;;;;7.18;3.72;;;3.30;99.90;;;;;;7369663;19;20363;-77
2023/02/25 01:51:34;;;;;;;4.07;2.97;;;3.30;99.90;;;;;;7378594;19;20731;-79
2023/02/25 01:54:01;;;;;;;5.90;3.22;;;3.30;99.90;;;;;;7398065;19;21294;-80
2023/02/25 01:56:27;;;;;;;4.50;3.03;;;3.30;99.90;;;;;;7398299;19;20332;-82
2023/02/25 01:58:53;;;;;;;4.90;2.83;;;3.20;99.90;;;;;;7400493;19;20436;-81
2023/02/25 02:01:20;;;;;;;5.43;2.70;;;3.20;99.90;;;;;;7405356;19;20424;-80
2023/02/25 02:03:46;;;;;;;4.78;2.50;;;3.10;99.90;;;;;;7410555;19;20328;-84
2023/02/25 02:06:16;;;;;;;5.40;2.28;;;3.10;99.90;;;;;;7402331;19;20377;-79
2023/02/25 02:08:42;;;;;;;5.22;2.38;;;3.10;99.90;;;;;;7395230;19;20360;-82
2023/02/25 02:11:08;;;;;;;3.50;2.20;;;3.10;99.90;;;;;;7398869;19;20344;-80
2023/02/25 02:13:36;;;;;;;2.72;1.77;;;3.10;99.90;;;;;;7398573;19;20315;-81
2023/02/25 02:16:17;;;;;;;3.60;1.87;;;3.00;99.90;;;;;;7396132;19;20343;-82
2023/02/25 02:18:48;;;;;;;2.25;1.80;;;2.90;99.90;;;;;;7398620;19;20345;-84
2023/02/25 02:21:47;;;;;;;3.08;1.77;;;2.90;99.90;;;;;;7402231;19;20352;-82
2023/02/25 02:24:29;;;;;;;2.45;1.90;;;2.70;99.90;;;;;;7297938;19;2004632;-81
2023/02/25 02:27:02;;;;;;;2.17;1.73;;;2.70;99.90;;;;;;7395833;19;20344;-80
2023/02/25 02:30:00;;;;;;;2.88;2.08;;;2.70;99.90;;;;;;7388655;19;20317;-80
2023/02/25 02:32:40;;;;;;;2.20;2.00;;;2.60;99.90;;;;;;7286264;19;2004830;-80
2023/02/25 02:35:34;;;;;;;2.78;2.10;;;2.70;99.90;;;;;;7284786;19;2004254;-81
2023/02/25 02:38:20;;;;;;;3.88;2.20;;;2.60;99.90;;;;;;7390084;19;20416;-80
2023/02/25 02:41:02;;;;;;;3.55;2.33;;;2.60;99.90;;;;;;7285990;19;2004788;-81
2023/02/25 02:43:41;;;;;;;4.35;2.55;;;2.60;99.90;;;;;;7387246;19;20388;-81
2023/02/25 02:46:32;;;;;;;2.80;2.17;;;2.60;99.90;;;;;;7286171;19;2005954;-79
2023/02/25 02:49:05;;;;;;;2.53;2.33;;;2.60;99.90;;;;;;7385253;19;20674;-79
2023/02/25 02:51:38;;;;;;;4.13;2.47;;;2.60;99.90;;;;;;7286981;19;2004704;-80
2023/02/25 02:54:05;;;;;;;3.70;2.40;;;2.60;99.90;;;;;;7390879;19;20386;-80
2023/02/25 02:56:32;;;;;;;2.85;2.60;;;2.60;99.90;;;;;;7385026;19;20316;-79
2023/02/25 02:59:04;;;;;;;3.75;2.40;;;2.60;99.90;;;;;;7386214;19;20352;-79
2023/02/25 03:01:31;;;;;;;2.53;2.22;;;2.60;99.90;;;;;;7383928;19;20415;-81
2023/02/25 03:04:18;;;;;;;3.95;2.20;;;2.60;99.90;;;;;;7389264;19;20329;-79
2023/02/25 03:06:46;;;;;;;3.03;2.28;;;2.60;99.90;;;;;;7282649;19;2004280;-79
2023/02/25 03:09:13;;;;;;;4.00;2.40;;;2.60;99.90;;;;;;7385234;19;20341;-80
2023/02/25 03:11:42;;;;;;;3.22;2.28;;;2.60;99.90;;;;;;7387972;19;20339;-81
2023/02/25 03:14:12;;;;;;;3.70;2.30;;;2.70;99.90;;;;;;7389909;19;20792;-80
2023/02/25 03:16:41;;;;;;;2.40;2.10;;;2.70;99.90;;;;;;7391028;19;20316;-81
2023/02/25 03:19:07;;;;;;;2.28;2.08;;;2.70;99.90;;;;;;7386971;19;20431;-79
2023/02/25 03:21:37;;;;;;;3.43;2.50;;;2.70;99.90;;;;;;7390617;19;20337;-80
2023/02/25 03:24:04;;;;;;;3.93;2.57;;;2.70;99.90;;;;;;7384203;19;20360;-81
2023/02/25 03:26:30;;;;;;;2.60;2.15;;;2.70;99.90;;;;;;7390359;19;20317;-80
2023/02/25 03:29:00;;;;;;;3.83;2.17;;;2.70;99.90;;;;;;7365048;19;20353;-79
2023/02/25 03:31:41;;;;;;;2.40;2.20;;;2.70;99.90;;;;;;7385284;19;20354;-80
2023/02/25 03:34:21;;;;;;;3.58;2.00;;;2.80;99.90;;;;;;7284917;19;2004427;-79
2023/02/25 03:36:52;;;;;;;3.20;2.25;;;2.70;99.90;;;;;;7385893;19;20895;-80
2023/02/25 03:39:20;;;;;;;2.10;1.90;;;2.70;99.90;;;;;;7369350;19;20373;-80
2023/02/25 03:41:47;;;;;;;2.05;1.80;;;2.80;99.90;;;;;;7389291;19;20454;-80
2023/02/25 03:44:19;;;;;;;2.13;1.77;;;2.70;99.90;;;;;;7387350;19;20356;-82
2023/02/25 03:46:45;;;;;;;1.70;1.60;;;2.70;99.90;;;;;;7389214;19;20331;-79
2023/02/25 03:49:14;;;;;;;3.43;1.80;;;2.70;99.90;;;;;;7385842;19;21179;-79
2023/02/25 03:51:40;;;;;;;3.03;1.88;;;2.70;99.90;;;;;;7379421;19;20320;-83
2023/02/25 03:54:06;;;;;;;1.75;1.65;;;2.60;99.90;;;;;;7388938;19;20353;-80
2023/02/25 03:56:47;;;;;;;1.80;1.60;;;2.60;99.90;;;;;;7391814;19;20409;-82
2023/02/25 03:59:15;;;;;;;1.75;1.65;;;2.60;99.90;;;;;;7399180;19;20400;-84
2023/02/25 04:01:43;;;;;;;1.88;1.48;;;2.50;99.90;;;;;;7390037;19;20661;-80
2023/02/25 04:04:09;;;;;;;1.70;1.50;;;2.60;99.90;;;;;;7392124;19;20313;-83
2023/02/25 04:06:34;;;;;;;2.27;1.70;;;2.50;99.90;;;;;;7396232;19;20914;-80
2023/02/25 04:09:00;;;;;;;2.10;1.50;;;2.50;99.90;;;;;;7390695;19;20357;-80
2023/02/25 04:11:29;;;;;;;1.87;1.77;;;2.50;99.90;;;;;;7393499;19;20391;-80
2023/02/25 04:13:55;;;;;;;2.50;1.40;;;2.50;99.90;;;;;;7395302;19;20325;-83
2023/02/25 04:16:20;;;;;;;1.63;1.50;;;2.50;99.90;;;;;;7389279;19;20333;-79
2023/02/25 04:18:47;;;;;;;2.22;1.50;;;2.50;99.90;;;;;;7384154;19;20333;-79
2023/02/25 04:21:24;;;;;;;1.77;1.50;;;2.50;99.90;;;;;;7386040;19;20373;-82
2023/02/25 04:23:50;;;;;;;2.10;1.60;;;2.50;99.90;;;;;;7385553;19;20848;-78
2023/02/25 04:26:15;;;;;;;2.75;1.60;;;2.50;99.90;;;;;;7383028;19;20341;-84
2023/02/25 04:28:41;;;;;;;2.23;1.70;;;2.50;99.90;;;;;;7385766;19;20349;-78
2023/02/25 04:31:07;;;;;;;1.60;1.50;;;2.50;99.90;;;;;;7385033;19;20359;-80
2023/02/25 04:33:33;;;;;;;2.90;1.77;;;2.50;99.90;;;;;;7385481;19;20335;-80
2023/02/25 04:35:58;;;;;;;2.57;1.70;;;2.40;99.90;;;;;;7385558;19;20345;-80
2023/02/25 04:38:24;;;;;;;1.60;1.50;;;2.40;99.90;;;;;;7382284;19;20313;-79
2023/02/25 04:40:51;;;;;;;1.87;1.67;;;2.40;99.90;;;;;;7384439;19;20324;-79
2023/02/25 04:43:16;;;;;;;2.00;1.88;;;2.40;99.90;;;;;;7385233;19;20379;-81
2023/02/25 04:45:42;;;;;;;2.80;1.87;;;2.40;99.90;;;;;;7384030;19;20415;-80
2023/02/25 04:48:08;;;;;;;1.48;1.38;;;2.40;99.90;;;;;;7387061;19;20887;-79
2023/02/25 04:50:33;;;;;;;1.40;1.30;;;2.40;99.90;;;;;;7383254;19;21128;-81
2023/02/25 04:53:01;;;;;;;1.60;1.50;;;2.40;99.90;;;;;;7392639;19;20404;-81
2023/02/25 04:55:30;;;;;;;1.43;1.40;;;2.40;99.90;;;;;;7369321;19;20403;-80
2023/02/25 04:57:56;;;;;;;1.45;1.35;;;2.40;99.90;;;;;;7400024;19;20309;-82
2023/02/25 05:00:27;;;;;;;1.70;1.50;;;2.40;99.90;;;;;;7388812;19;20305;-82
2023/02/25 05:02:53;;;;;;;1.60;1.50;;;2.40;99.90;;;;;;7392850;19;20313;-82
2023/02/25 05:05:19;;;;;;;1.70;1.60;;;2.40;99.90;;;;;;7394661;19;20319;-83
2023/02/25 05:07:44;;;;;;;1.70;1.60;;;2.40;99.90;;;;;;7368608;19;20328;-84
2023/02/25 05:10:13;;;;;;;1.30;1.20;;;2.40;99.90;;;;;;7393103;19;20317;-82
2023/02/25 05:12:42;;;;;;;1.65;1.55;;;2.40;99.90;;;;;;7394168;19;20316;-83
2023/02/25 05:15:09;;;;;;;1.52;1.42;;;2.40;99.90;;;;;;7396771;19;20313;-82
2023/02/25 05:17:36;;;;;;;2.63;2.38;;;2.40;99.90;;;;;;7356845;19;20404;-83
2023/02/25 05:20:10;;;;;;;1.52;1.42;;;2.40;99.90;;;;;;7397055;19;20308;-82
2023/02/25 05:22:36;;;;;;;2.25;1.48;;;2.40;99.90;;;;;;7398677;19;20333;-84
2023/02/25 05:25:04;;;;;;;1.33;1.33;;;2.40;99.90;;;;;;7400007;19;20316;-89
2023/02/25 05:27:30;;;;;;;1.23;1.23;;;2.40;99.90;;;;;;7397141;19;20308;-81
2023/02/25 05:29:56;;;;;;;1.50;1.40;;;2.40;99.90;;;;;;7403883;19;20328;-81
2023/02/25 05:32:21;;;;;;;2.42;1.70;;;2.30;99.90;;;;;;7396580;19;20324;-81
2023/02/25 05:34:52;;;;;;;1.75;1.58;;;2.40;99.90;;;;;;7382905;19;20333;-84
2023/02/25 05:37:17;;;;;;;1.58;1.48;;;2.30;99.90;;;;;;7379616;19;20336;-80
2023/02/25 05:39:43;;;;;;;1.65;1.48;;;2.40;99.90;;;;;;7392166;19;20340;-81
2023/02/25 05:42:10;;;;;;;1.40;1.33;;;2.40;99.90;;;;;;7376332;19;20344;-82
2023/02/25 05:44:36;;;;;;;1.60;1.50;;;2.30;99.90;;;;;;7373024;19;20715;-80
2023/02/25 05:47:02;;;;;;;1.30;1.20;;;2.40;99.90;;;;;;7393872;19;20355;-81
2023/02/25 05:49:28;;;;;;;1.70;1.60;;;2.30;99.90;;;;;;7389843;19;20345;-81
2023/02/25 05:51:54;;;;;;;1.40;1.30;;;2.30;99.90;;;;;;7397858;19;20423;-83
2023/02/25 05:54:21;;;;;;;1.63;1.52;;;2.30;99.90;;;;;;7397686;19;20363;-83
2023/02/25 05:56:50;;;;;;;1.40;1.30;;;2.30;99.90;;;;;;7393176;19;20376;-81
2023/02/25 05:59:17;;;;;;;1.30;1.20;;;2.30;99.90;;;;;;7399200;19;20359;-80
2023/02/25 06:01:43;;;;;;;1.70;1.40;;;2.30;99.90;;;;;;7392494;19;20412;-80
2023/02/25 06:04:08;;;;;;;1.10;1.10;;;2.20;99.90;;;;;;7387084;19;20883;-80
2023/02/25 06:06:34;;;;;;;1.00;1.00;;;2.20;99.90;;;;;;7391751;19;20313;-80
2023/02/25 06:08:59;;;;;;;1.13;1.13;;;2.20;99.90;;;;;;7385749;19;20373;-81
2023/02/25 06:11:27;;;;;;;0.90;0.90;;;2.20;99.90;;;;;;7391231;19;20383;-79
2023/02/25 06:13:53;;;;;;;0.90;0.90;;;2.20;99.90;;;;;;7394330;19;20359;-79
2023/02/25 06:16:20;;;;;;;1.20;1.20;;;2.20;99.90;;;;;;7394321;19;20373;-80
2023/02/25 06:18:47;;;;;;;1.23;1.13;;;2.10;99.90;;;;;;7383132;19;20385;-79
2023/02/25 06:21:13;;;;;;;1.10;1.10;;;2.10;99.90;;;;;;7393256;19;20365;-80
2023/02/25 06:23:40;;;;;;;1.40;1.00;;;2.20;99.90;;;;;;7392516;19;20309;-80
2023/02/25 06:26:06;;;;;;;1.10;1.10;;;2.20;99.90;;;;;;7393936;19;20344;-79
2023/02/25 06:28:32;;;;;;;1.00;1.00;;;2.10;99.90;;;;;;7387972;19;20320;-80
2023/02/25 06:30:58;;;;;;;0.90;0.90;;;2.20;99.90;;;;;;7389812;19;20329;-80
2023/02/25 06:33:24;;;;;;;1.08;1.08;;;2.20;99.90;;;;;;7393148;19;20312;-80
2023/02/25 06:35:52;;;;;;;1.00;1.00;;;2.10;99.90;;;;;;7395023;19;20406;-79
2023/02/25 06:38:18;;;;;;;1.00;1.00;;;2.10;99.90;;;;;;7390911;19;20345;-81
2023/02/25 06:40:45;;;;;;;1.00;0.90;;;2.10;99.90;;;;;;7392779;19;20332;-82
2023/02/25 06:43:11;;;;;;;0.90;0.90;;;2.10;99.90;;;;;;7392172;19;20289;-81
2023/02/25 06:45:37;;;;;;;1.60;1.50;;;2.10;99.90;;;;;;7392512;19;20310;-81
2023/02/25 06:48:02;;;;;;;0.90;0.90;;;2.10;99.90;;;;;;7395772;19;20321;-80
2023/02/25 06:50:28;;;;;;;1.42;1.33;;;2.10;99.90;;;;;;7399781;19;20417;-85
2023/02/25 06:52:54;;;;;;;1.33;1.23;;;2.10;99.90;;;;;;7398304;19;20333;-82
2023/02/25 06:55:20;;;;;;;1.10;1.10;;;2.10;99.90;;;;;;7394195;19;20415;-81
2023/02/25 06:57:45;;;;;;;1.30;1.20;;;2.00;99.90;;;;;;7398288;19;20589;-82
2023/02/25 07:00:12;;;;;;;1.40;1.30;;;2.00;99.90;;;;;;7400425;19;20352;-85
2023/02/25 07:02:37;;;;;;;1.10;1.10;;;2.00;99.90;;;;;;7397458;19;20682;-81
2023/02/25 07:05:04;;;;;;;1.10;1.10;;;2.10;99.90;;;;;;7394301;19;20388;-81
2023/02/25 07:07:30;;;;;;;1.77;1.20;;;2.00;99.90;;;;;;7397534;19;20327;-80
2023/02/25 07:09:55;;;;;;;1.13;1.03;;;2.00;99.90;;;;;;7394934;19;20337;-82
2023/02/25 07:12:21;;;;;;;0.90;0.90;;;1.90;99.90;;;;;;7395878;19;20335;-82
2023/02/25 07:14:47;;;;;;;1.07;1.07;;;2.00;99.90;;;;;;7396332;19;20323;-83
2023/02/25 07:17:12;;;;;;;1.00;1.00;;;2.10;99.90;;;;;;7399749;19;20325;-83
2023/02/25 07:19:38;;;;;;;1.20;1.20;;;1.90;99.90;;;;;;7393503;19;20331;-82
2023/02/25 07:22:04;;;;;;;2.40;1.20;;;2.00;99.90;;;;;;7396410;19;20396;-81
2023/02/25 07:24:30;;;;;;;1.00;1.00;;;1.90;99.90;;;;;;7396309;19;20740;-80
2023/02/25 07:26:55;;;;;;;1.17;0.90;;;1.90;99.90;;;;;;7346340;19;20332;-81
2023/02/25 07:29:21;;;;;;;1.00;1.00;;;1.90;99.90;;;;;;7387933;19;20384;-83
2023/02/25 07:31:47;;;;;;;0.85;0.85;;;1.90;99.90;;;;;;7393588;19;20377;-83
2023/02/25 07:34:13;;;;;;;0.93;0.93;;;1.90;99.90;;;;;;7396186;19;20320;-81
2023/02/25 07:36:39;;;;;;;0.90;0.90;;;1.90;99.90;;;;;;7394356;19;20432;-82
2023/02/25 07:39:06;;;;;;;0.90;0.90;;;1.90;99.90;;;;;;7391424;19;20349;-84
2023/02/25 07:41:32;;;;;;;0.82;0.82;;;1.80;99.90;;;;;;7398035;19;20416;-83
2023/02/25 07:44:02;;;;;;;0.83;0.83;;;1.90;99.90;;;;;;7371419;19;20324;-81
2023/02/25 07:46:28;;;;;;;0.80;0.80;;;1.80;99.90;;;;;;7390717;19;20324;-84
2023/02/25 07:48:54;;;;;;;0.75;0.75;;;1.90;99.90;;;;;;7394570;19;20740;-82
2023/02/25 07:51:21;;;;;;;0.80;0.80;;;1.90;99.90;;;;;;7396080;19;20378;-81
2023/02/25 07:53:47;;;;;;;0.80;0.80;;;1.80;99.90;;;;;;7383315;19;20357;-80
2023/02/25 07:56:13;;;;;;;0.80;0.80;;;1.80;99.90;;;;;;7386787;19;20420;-82
2023/02/25 07:58:39;;;;;;;0.80;0.80;;;1.90;99.90;;;;;;7388466;19;20345;-81
2023/02/25 08:01:10;;;;;;;0.80;0.80;;;2.00;99.90;;;;;;7387822;19;20339;-83
2023/02/25 08:03:37;;;;;;;0.82;0.82;;;1.90;99.90;;;;;;7380723;19;20328;-83
2023/02/25 08:06:07;;;;;;;0.90;0.90;;;1.90;99.90;;;;;;7388691;19;20332;-80
2023/02/25 08:08:36;;;;;;;0.80;0.80;;;2.00;99.90;;;;;;7389827;19;20358;-83
2023/02/25 08:11:08;;;;;;;0.80;0.80;;;1.90;99.90;;;;;;7391006;19;20332;-81
2023/02/25 08:13:34;;;;;;;0.80;0.80;;;2.00;99.90;;;;;;7392697;19;20411;-80
2023/02/25 08:16:02;;;;;;;0.70;0.70;;;1.90;99.90;;;;;;7389995;19;20880;-81
2023/02/25 08:18:28;;;;;;;0.73;0.73;;;1.90;99.90;;;;;;7388768;19;20450;-80
2023/02/25 08:20:54;;;;;;;0.70;0.70;;;2.00;99.90;;;;;;7390546;19;20379;-79
2023/02/25 08:23:20;;;;;;;0.93;0.83;;;2.10;99.90;;;;;;7388879;19;20312;-81
2023/02/25 08:25:54;;;;;;;0.77;0.77;;;2.00;99.90;;;;;;7386723;19;21030;-81
2023/02/25 08:28:22;;;;;;;0.80;0.80;;;2.00;99.90;;;;;;7368001;19;20373;-78
2023/02/25 08:30:48;;;;;;;0.85;0.85;;;2.10;99.90;;;;;;7384648;19;20394;-82
2023/02/25 08:33:14;;;;;;;0.80;0.80;;;2.10;99.90;;;;;;7387203;19;20309;-82
2023/02/25 08:35:39;;;;;;;0.80;0.80;;;2.20;99.90;;;;;;7365256;19;20388;-81
2023/02/25 08:38:05;;;;;;;0.90;0.90;;;2.20;99.90;;;;;;7391419;19;20324;-82
2023/02/25 08:40:30;;;;;;;0.83;0.83;;;2.10;99.90;;;;;;7386754;19;21162;-81
2023/02/25 08:42:56;;;;;;;1.00;1.00;;;2.20;99.90;;;;;;7385607;19;20341;-80
2023/02/25 08:45:23;;;;;;;0.97;0.97;;;2.20;99.90;;;;;;7383884;19;20351;-80
2023/02/25 08:47:49;;;;;;;1.38;1.27;;;2.20;99.90;;;;;;7384774;19;20380;-79
2023/02/25 10:44:23;;;;;;;0.80;0.80;;;2.90;99.90;;;;;;7347736;19;20324;-79
2023/02/25 10:46:53;;;;;;;0.88;0.88;;;2.60;99.90;;;;;;7171081;19;2004459;-79
2023/02/25 10:49:21;;;;;;;0.90;0.90;;;2.50;99.90;;;;;;7381771;19;20949;-79
2023/02/25 10:52:03;;;;;;;0.80;0.80;;;2.60;99.90;;;;;;7379651;19;21251;-82
2023/02/25 10:54:34;;;;;;;0.80;0.80;;;2.60;99.90;;;;;;7376284;19;20345;-81
2023/02/25 10:57:07;;;;;;;0.80;0.80;;;2.40;99.90;;;;;;7383882;19;20446;-82
2023/02/25 10:59:38;;;;;;;0.73;0.73;;;2.60;99.90;;;;;;7279448;19;2004547;-82
2023/02/25 11:02:20;;;;;;;0.90;0.90;;;2.50;99.90;;;;;;7385692;19;20320;-83
2023/02/25 11:04:47;;;;;;;1.50;0.80;;;2.60;99.90;;;;;;7386852;19;20435;-84
2023/02/25 11:07:23;;;;;;;1.10;0.80;;;2.60;99.90;;;;;;7392113;19;20357;-83
2023/02/25 11:10:04;;;;;;;0.73;0.73;;;2.60;99.90;;;;;;7392020;19;20395;-82
2023/02/25 11:12:31;;;;;;;0.60;0.60;;;2.70;99.90;;;;;;7391247;19;20329;-83
2023/02/25 11:14:56;;;;;;;1.00;0.90;;;2.70;99.90;;;;;;7391684;19;20329;-83
2023/02/25 11:17:22;;;;;;;0.80;0.80;;;2.80;99.90;;;;;;7362293;19;20333;-83
2023/02/25 11:19:51;;;;;;;0.80;0.80;;;2.70;99.90;;;;;;7387977;19;20778;-80
2023/02/25 11:22:21;;;;;;;0.73;0.73;;;2.60;99.90;;;;;;7390209;19;20328;-82
2023/02/25 11:24:58;;;;;;;0.60;0.60;;;2.60;99.90;;;;;;7394053;19;20361;-82
2023/02/25 11:27:36;;;;;;;0.70;0.70;;;2.60;99.90;;;;;;7402191;19;20325;-80
2023/02/25 11:30:07;;;;;;;0.70;0.70;;;2.70;99.90;;;;;;7401097;19;20315;-81
2023/02/25 11:32:33;;;;;;;0.73;0.73;;;2.70;99.90;;;;;;7272832;19;2020540;-82
2023/02/25 11:35:07;;;;;;;0.75;0.75;;;2.80;99.90;;;;;;7380785;19;21240;-82
2023/02/25 11:37:39;;;;;;;0.80;0.80;;;2.70;99.90;;;;;;7279462;19;2004800;-83
2023/02/25 11:40:28;;;;;;;0.80;0.80;;;2.80;99.90;;;;;;7382074;19;20874;-82
2023/02/25 11:43:05;;;;;;;0.90;0.90;;;2.70;99.90;;;;;;7377165;19;20297;-83
2023/02/25 11:45:45;;;;;;;1.23;1.15;;;2.70;99.90;;;;;;7381213;19;20353;-82
2023/02/25 11:48:40;;;;;;;0.80;0.80;;;2.80;99.90;;;;;;7289441;19;2007328;-80
2023/02/25 11:51:46;;;;;;;1.27;0.85;;;2.90;99.90;;;;;;7284943;19;2006291;-83
2023/02/25 11:54:51;;;;;;;0.80;0.80;;;2.80;99.90;;;;;;7274329;19;2004388;-83
2023/02/25 11:57:34;;;;;;;0.75;0.75;;;2.80;99.90;;;;;;7279119;19;2004356;-81
2023/02/25 12:00:21;;;;;;;0.77;0.77;;;2.80;99.90;;;;;;7382546;19;20316;-82
2023/02/25 12:03:11;;;;;;;0.90;0.90;;;2.80;99.90;;;;;;7177140;19;2004492;-81
2023/02/25 12:05:57;;;;;;;1.27;1.17;;;2.70;99.90;;;;;;7280913;19;2004672;-83
2023/02/25 12:08:39;;;;;;;1.10;1.10;;;2.50;99.90;;;;;;7384574;19;20336;-82
2023/02/25 12:11:39;;;;;;;0.90;0.90;;;2.50;99.90;;;;;;7285715;19;2004276;-81
2023/02/25 12:14:17;;;;;;;3.13;2.00;;;2.50;99.90;;;;;;7279251;19;2004684;-82
2023/02/25 12:17:07;;;;;;;2.13;1.83;;;2.30;99.90;;;;;;7378097;19;20349;-83
2023/02/25 12:20:03;;;;;;;1.40;1.27;;;2.40;99.90;;;;;;7284794;19;2004443;-83
2023/02/25 12:22:59;;;;;;;0.75;0.75;;;2.50;99.90;;;;;;7387828;19;20783;-82
2023/02/25 12:25:45;;;;;;;1.63;1.40;;;2.60;99.90;;;;;;7278306;19;2017958;-83
2023/02/25 12:28:29;;;;;;;0.85;0.85;;;2.50;99.90;;;;;;7280761;19;2010364;-83
2023/02/25 12:30:59;;;;;;;0.90;0.90;;;2.60;99.90;;;;;;7382597;19;20304;-82
2023/02/25 12:33:47;;;;;;;0.82;0.82;;;2.70;99.90;;;;;;7375706;19;20317;-82
2023/02/25 12:36:21;;;;;;;0.90;0.90;;;2.60;99.90;;;;;;7278083;19;2004505;-81
2023/02/25 12:39:05;;;;;;;0.80;0.80;;;2.70;99.90;;;;;;7378080;19;20350;-83
2023/02/25 12:41:39;;;;;;;0.90;0.90;;;2.80;99.90;;;;;;7382709;19;20336;-83
2023/02/25 12:44:26;;;;;;;0.90;0.90;;;2.90;99.90;;;;;;7278322;19;2004262;-82
2023/02/25 12:47:25;;;;;;;0.80;0.80;;;2.70;99.90;;;;;;7378120;19;20343;-82
2023/02/25 12:50:07;;;;;;;0.80;0.80;;;2.60;99.90;;;;;;7278736;19;2004676;-82
2023/02/25 12:53:17;;;;;;;0.75;0.73;;;2.50;99.90;;;;;;7277057;19;2004450;-83
2023/02/25 12:56:02;;;;;;;0.90;0.90;;;2.50;99.90;;;;;;7279430;19;2004424;-82
2023/02/25 12:59:01;;;;;;;0.80;0.80;;;2.10;99.90;;;;;;7378869;19;20324;-83
2023/02/25 13:01:30;;;;;;;0.77;0.77;;;2.00;99.90;;;;;;7279615;19;2004342;-81
2023/02/25 13:04:39;;;;;;;0.80;0.80;;;1.90;99.90;;;;;;7382189;19;20350;-83
2023/02/25 13:07:34;;;;;;;0.70;0.70;;;2.00;99.90;;;;;;7172586;19;2004387;-82
2023/02/25 13:10:13;;;;;;;0.60;0.60;;;2.10;99.90;;;;;;7380318;19;20300;-83
2023/02/25 13:13:09;;;;;;;0.80;0.80;;;2.10;99.90;;;;;;7271468;19;2004298;-83
2023/02/25 13:16:19;;;;;;;0.70;0.70;;;1.90;99.90;;;;;;7274019;19;2019006;-82
2023/02/25 13:19:02;;;;;;;1.00;1.00;;;2.10;99.90;;;;;;7275270;19;2004539;-82
2023/02/25 13:21:34;;;;;;;1.00;1.00;;;2.30;99.90;;;;;;7378283;19;20332;-83
2023/02/25 13:24:21;;;;;;;0.80;0.80;;;2.40;99.90;;;;;;7377491;19;20958;-81
2023/02/25 13:27:24;;;;;;;0.80;0.80;;;2.40;99.90;;;;;;7276623;19;2004891;-81
2023/02/25 13:30:31;;;;;;;1.00;1.00;;;2.40;99.90;;;;;;7272725;19;2004715;-83
2023/02/25 13:33:04;;;;;;;0.90;0.90;;;2.50;99.90;;;;;;7183361;19;2004466;-81
2023/02/25 13:35:55;;;;;;;0.90;0.90;;;2.50;99.90;;;;;;7378121;19;21209;-83
2023/02/25 13:38:21;;;;;;;0.90;0.90;;;2.40;99.90;;;;;;7278679;19;2004653;-83
2023/02/25 13:41:14;;;;;;;0.80;0.80;;;2.40;99.90;;;;;;7378004;19;20691;-81
2023/02/25 13:43:52;;;;;;;0.50;0.50;;;1.70;99.90;;;;;;7273421;19;2004257;-81
2023/02/25 13:46:42;;;;;;;0.70;0.70;;;1.30;99.90;;;;;;7377731;19;20317;-83
2023/02/25 13:49:45;;;;;;;0.70;0.70;;;0.80;99.90;;;;;;7276482;19;2004866;-80
2023/02/25 13:52:32;;;;;;;0.80;0.80;;;0.80;99.90;;;;;;7276899;19;2017237;-81
2023/02/25 13:55:03;;;;;;;0.90;0.90;;;0.80;99.90;;;;;;7379409;19;20325;-83
2023/02/25 13:57:34;;;;;;;0.82;0.82;;;0.80;99.90;;;;;;7379579;19;20316;-81
2023/02/25 14:00:20;;;;;;;0.90;0.90;;;1.00;99.90;;;;;;7385614;19;20304;-82
2023/02/25 14:03:30;;;;;;;1.00;1.00;;;1.10;99.90;;;;;;7176560;19;2004353;-82
2023/02/25 14:06:14;;;;;;;0.90;0.90;;;1.30;99.90;;;;;;7279472;19;2019796;-82
2023/02/25 14:09:24;;;;;;;0.60;0.60;;;1.20;99.90;;;;;;7281956;19;2017861;-82
2023/02/25 14:11:54;;;;;;;0.80;0.80;;;1.20;99.90;;;;;;7281136;19;2004252;-82
2023/02/25 14:14:28;;;;;;;1.05;1.05;;;1.30;99.90;;;;;;7381908;19;20345;-80
2023/02/25 14:17:31;;;;;;;1.00;1.00;;;1.30;99.90;;;;;;7376561;19;20348;-80
2023/02/25 14:20:27;;;;;;;1.00;1.00;;;1.40;99.90;;;;;;7279502;19;2004526;-81
2023/02/25 14:23:10;;;;;;;0.90;0.90;;;1.20;99.90;;;;;;7276069;19;2004321;-81
2023/02/25 14:25:54;;;;;;;0.90;0.90;;;1.20;99.90;;;;;;7287464;19;2004449;-82
2023/02/25 14:29:08;;;;;;;0.95;0.95;;;1.10;99.90;;;;;;7388291;19;20333;-83
2023/02/25 14:31:42;;;;;;;0.80;0.80;;;1.00;99.90;;;;;;7182753;19;2004381;-81
2023/02/25 14:34:44;;;;;;;0.90;0.90;;;0.90;99.90;;;;;;7388151;19;20392;-82
2023/02/25 14:37:30;;;;;;;0.90;0.90;;;0.70;99.90;;;;;;7288407;19;2004242;-82
2023/02/25 14:40:04;;;;;;;0.90;0.90;;;0.70;99.90;;;;;;7389476;19;20330;-82
2023/02/25 14:42:39;;;;;;;0.88;0.88;;;0.70;99.90;;;;;;7399042;19;20342;-82
2023/02/25 14:45:18;;;;;;;0.80;0.80;;;0.80;99.90;;;;;;7289263;19;2004534;-82
2023/02/25 14:48:04;;;;;;;0.75;0.75;;;0.80;99.90;;;;;;7402280;19;20344;-83
2023/02/25 14:50:38;;;;;;;1.00;1.00;;;0.80;99.90;;;;;;7392398;19;20327;-82
2023/02/25 14:53:25;;;;;;;0.85;0.85;;;0.80;99.90;;;;;;7298609;19;2004212;-83
2023/02/25 14:55:59;;;;;;;0.90;0.90;;;0.90;99.90;;;;;;7401623;19;20404;-82
2023/02/25 14:58:43;;;;;;;1.00;1.00;;;1.00;99.90;;;;;;7406282;19;20327;-82
2023/02/25 15:01:23;;;;;;;1.20;1.10;;;1.10;99.90;;;;;;7298462;19;2004192;-83
2023/02/25 15:04:08;;;;;;;0.90;0.90;;;1.00;99.90;;;;;;7379161;19;20357;-82
2023/02/25 15:06:46;;;;;;;1.00;1.00;;;1.00;99.90;;;;;;7291690;19;2004286;-82
2023/02/25 15:09:21;;;;;;;0.90;0.90;;;0.90;99.90;;;;;;7406101;19;20381;-83
2023/02/25 15:12:06;;;;;;;0.90;0.90;;;1.00;99.90;;;;;;7405217;19;20340;-83
2023/02/25 15:14:55;;;;;;;0.82;0.82;;;1.10;99.90;;;;;;7385182;19;20383;-83
2023/02/25 15:17:43;;;;;;;0.85;0.85;;;1.10;99.90;;;;;;7285103;19;2004437;-83